createdAt,value
2022-12-31T00:00:20.036Z,88.19
2022-12-31T00:02:22.647Z,87.92
2022-12-31T00:04:25.617Z,87.94
2022-12-31T00:06:34.362Z,87.84
2022-12-31T00:08:36.365Z,87.56
2022-12-31T00:10:47.844Z,88.06
2022-12-31T00:12:50.858Z,87.97
2022-12-31T00:14:54.775Z,88.00
2022-12-31T00:16:56.652Z,88.43
2022-12-31T00:19:00.772Z,88.54
2022-12-31T00:21:10.227Z,88.50
2022-12-31T00:23:15.262Z,88.18
2022-12-31T00:25:17.218Z,88.57
2022-12-31T00:27:19.191Z,88.40
2022-12-31T00:29:21.115Z,88.99
2022-12-31T00:31:26.294Z,88.77
2022-12-31T00:33:28.251Z,88.70
2022-12-31T00:35:31.022Z,88.60
2022-12-31T00:37:35.286Z,89.36
2022-12-31T00:39:38.225Z,88.43
2022-12-31T00:41:40.571Z,88.74
2022-12-31T00:43:42.762Z,88.73
2022-12-31T00:45:45.703Z,88.43
2022-12-31T00:47:47.658Z,88.69
2022-12-31T00:49:50.555Z,88.90
2022-12-31T00:51:53.481Z,88.11
2022-12-31T00:53:58.324Z,88.08
2022-12-31T00:56:02.922Z,88.43
2022-12-31T00:58:04.845Z,88.31
2022-12-31T01:00:07.881Z,87.98
2022-12-31T01:02:10.204Z,87.18
2022-12-31T01:04:15.680Z,86.96
2022-12-31T01:06:18.574Z,86.74
2022-12-31T01:08:24.348Z,86.62
2022-12-31T01:10:46.263Z,86.44
2022-12-31T01:12:50.256Z,86.88
2022-12-31T01:14:52.236Z,86.47
2022-12-31T01:16:56.300Z,86.41
2022-12-31T01:19:01.198Z,86.84
2022-12-31T01:21:05.185Z,86.39
2022-12-31T01:23:08.261Z,86.09
2022-12-31T01:25:10.266Z,86.29
2022-12-31T01:27:12.154Z,86.06
2022-12-31T01:29:14.960Z,85.92
2022-12-31T01:31:19.174Z,86.01
2022-12-31T01:33:21.217Z,85.95
2022-12-31T01:35:23.685Z,85.97
2022-12-31T01:37:26.587Z,86.06
2022-12-31T01:39:29.474Z,86.23
2022-12-31T01:41:34.764Z,86.36
2022-12-31T01:43:44.543Z,85.68
2022-12-31T01:45:52.115Z,86.62
2022-12-31T01:47:58.611Z,86.62
2022-12-31T01:50:31.475Z,86.08
2022-12-31T01:52:41.566Z,86.16
2022-12-31T01:55:17.186Z,85.68
2022-12-31T01:57:22.468Z,86.29
2022-12-31T01:59:28.203Z,85.47
2022-12-31T02:01:33.331Z,85.86
2022-12-31T02:03:35.912Z,85.38
2022-12-31T02:06:03.055Z,85.26
2022-12-31T02:08:07.830Z,85.12
2022-12-31T02:10:09.806Z,85.01
2022-12-31T02:12:12.790Z,84.81
2022-12-31T02:14:25.868Z,84.79
2022-12-31T02:16:59.683Z,84.76
2022-12-31T02:19:38.065Z,84.66
2022-12-31T02:21:42.776Z,84.55
2022-12-31T02:24:05.555Z,84.27
2022-12-31T02:26:31.785Z,84.27
2022-12-31T02:28:34.699Z,84.37
2022-12-31T02:30:37.751Z,84.51
2022-12-31T02:32:47.895Z,84.27
2022-12-31T02:34:59.163Z,83.68
2022-12-31T02:37:06.549Z,84.09
2022-12-31T02:39:12.032Z,84.17
2022-12-31T02:41:38.076Z,83.81
2022-12-31T02:43:47.078Z,83.44
2022-12-31T02:46:03.937Z,83.12
2022-12-31T02:48:23.904Z,82.57
2022-12-31T02:50:39.058Z,82.16
2022-12-31T02:52:59.475Z,81.45
2022-12-31T02:55:07.207Z,81.16
2022-12-31T02:57:11.791Z,80.60
2022-12-31T02:59:52.158Z,80.30
2022-12-31T03:02:14.606Z,79.59
2022-12-31T03:04:36.403Z,78.98
2022-12-31T03:06:42.348Z,78.53
2022-12-31T03:09:02.629Z,78.32
2022-12-31T03:11:24.509Z,77.48
2022-12-31T03:13:26.399Z,77.90
2022-12-31T03:15:34.353Z,76.88
2022-12-31T03:17:36.262Z,76.99
2022-12-31T03:19:57.966Z,76.15
2022-12-31T03:22:19.733Z,76.77
2022-12-31T03:24:42.181Z,75.93
2022-12-31T03:26:44.071Z,75.71
2022-12-31T03:28:49.004Z,76.00
2022-12-31T03:30:59.931Z,75.44
2022-12-31T03:33:04.696Z,75.55
2022-12-31T03:35:08.645Z,75.20
2022-12-31T03:37:10.576Z,75.48
2022-12-31T03:39:14.677Z,75.14
2022-12-31T03:41:16.593Z,75.50
2022-12-31T03:43:20.567Z,75.46
2022-12-31T03:45:24.423Z,75.53
2022-12-31T03:47:27.568Z,75.48
2022-12-31T03:49:29.486Z,75.11
2022-12-31T03:51:31.391Z,75.37
2022-12-31T03:53:35.058Z,75.47
2022-12-31T03:55:37.318Z,75.55
2022-12-31T03:57:39.540Z,75.52
2022-12-31T03:59:43.540Z,75.81
2022-12-31T04:01:46.560Z,75.35
2022-12-31T04:03:48.622Z,75.75
2022-12-31T04:05:55.295Z,75.24
2022-12-31T04:07:58.261Z,75.22
2022-12-31T04:10:03.635Z,75.69
2022-12-31T04:12:05.994Z,75.30
2022-12-31T04:14:08.169Z,76.06
2022-12-31T04:16:10.320Z,75.95
2022-12-31T04:18:12.827Z,75.48
2022-12-31T04:20:16.106Z,75.20
2022-12-31T04:22:18.430Z,75.63
2022-12-31T04:24:20.510Z,75.17
2022-12-31T04:26:22.539Z,75.12
2022-12-31T04:28:24.492Z,75.63
2022-12-31T04:30:27.356Z,75.68
2022-12-31T04:32:29.255Z,76.00
2022-12-31T04:34:31.413Z,75.86
2022-12-31T04:36:33.447Z,75.04
2022-12-31T04:38:35.370Z,75.32
2022-12-31T04:40:58.404Z,75.93
2022-12-31T04:43:00.384Z,75.92
2022-12-31T04:45:02.522Z,75.62
2022-12-31T04:47:04.543Z,76.09
2022-12-31T04:49:06.646Z,75.77
2022-12-31T04:51:08.688Z,76.52
2022-12-31T04:53:10.517Z,76.60
2022-12-31T04:55:12.667Z,76.18
2022-12-31T04:57:14.619Z,76.59
2022-12-31T04:59:16.559Z,76.18
2022-12-31T05:01:18.617Z,76.03
2022-12-31T05:03:23.346Z,76.00
2022-12-31T05:05:25.320Z,76.53
2022-12-31T05:07:28.310Z,75.78
2022-12-31T05:09:31.212Z,75.96
2022-12-31T05:11:33.441Z,76.42
2022-12-31T05:13:39.044Z,76.19
2022-12-31T05:15:43.383Z,76.55
2022-12-31T05:17:45.333Z,76.26
2022-12-31T05:19:47.263Z,76.49
2022-12-31T05:22:09.105Z,77.04
2022-12-31T05:24:10.903Z,77.30
2022-12-31T05:26:12.729Z,76.69
2022-12-31T05:28:15.649Z,76.11
2022-12-31T05:30:18.964Z,76.57
2022-12-31T05:32:20.837Z,76.66
2022-12-31T05:34:22.672Z,76.54
2022-12-31T05:36:25.673Z,76.47
2022-12-31T05:38:28.637Z,77.18
2022-12-31T05:40:38.526Z,76.76
2022-12-31T05:42:40.557Z,77.49
2022-12-31T05:44:42.452Z,77.44
2022-12-31T05:46:44.607Z,77.54
2022-12-31T05:48:46.521Z,77.94
2022-12-31T05:50:49.766Z,78.16
2022-12-31T05:52:51.685Z,77.84
2022-12-31T05:54:53.609Z,77.79
2022-12-31T05:56:56.589Z,78.36
2022-12-31T05:58:58.606Z,77.86
2022-12-31T06:01:00.521Z,78.31
2022-12-31T06:03:03.651Z,78.33
2022-12-31T06:05:06.070Z,78.47
2022-12-31T06:07:08.081Z,78.57
2022-12-31T06:09:13.126Z,79.48
2022-12-31T06:11:15.084Z,79.30
2022-12-31T06:13:16.961Z,79.34
2022-12-31T06:15:19.941Z,79.64
2022-12-31T06:17:22.692Z,79.38
2022-12-31T06:19:24.986Z,79.53
2022-12-31T06:21:26.883Z,79.79
2022-12-31T06:23:30.034Z,79.81
2022-12-31T06:25:32.349Z,80.16
2022-12-31T06:27:35.328Z,79.52
2022-12-31T06:29:37.560Z,79.92
2022-12-31T06:31:39.467Z,79.54
2022-12-31T06:33:42.218Z,80.11
2022-12-31T06:35:45.147Z,79.83
2022-12-31T06:37:48.105Z,79.77
2022-12-31T06:39:50.244Z,79.50
2022-12-31T06:41:53.295Z,79.79
2022-12-31T06:43:55.240Z,79.57
2022-12-31T06:46:01.131Z,79.83
2022-12-31T06:48:03.111Z,79.73
2022-12-31T06:50:05.510Z,79.60
2022-12-31T06:52:07.523Z,79.17
2022-12-31T06:54:10.462Z,79.24
2022-12-31T06:56:18.466Z,78.85
2022-12-31T06:58:21.741Z,78.85
2022-12-31T07:00:24.064Z,79.24
2022-12-31T07:02:45.922Z,78.92
2022-12-31T07:05:12.171Z,79.26
2022-12-31T07:07:34.355Z,79.00
2022-12-31T07:09:58.178Z,79.39
2022-12-31T07:12:28.963Z,78.43
2022-12-31T07:14:52.946Z,78.64
2022-12-31T07:17:12.456Z,78.45
2022-12-31T07:19:57.913Z,78.20
2022-12-31T07:22:15.465Z,78.01
2022-12-31T07:24:23.553Z,77.97
2022-12-31T07:26:55.973Z,77.84
2022-12-31T07:29:17.928Z,78.09
2022-12-31T07:31:57.033Z,77.95
2022-12-31T07:34:40.911Z,77.87
2022-12-31T07:37:27.448Z,77.77
2022-12-31T07:40:02.612Z,77.50
2022-12-31T07:42:39.420Z,77.99
2022-12-31T07:45:20.860Z,77.58
2022-12-31T07:47:28.900Z,77.48
2022-12-31T07:49:44.265Z,77.73
2022-12-31T07:51:46.533Z,77.37
2022-12-31T07:53:49.409Z,77.96
2022-12-31T07:56:02.576Z,77.64
2022-12-31T07:58:29.126Z,77.11
2022-12-31T08:00:32.727Z,77.10
2022-12-31T08:02:53.529Z,77.70
2022-12-31T08:05:15.281Z,77.00
2022-12-31T08:07:32.162Z,76.91
2022-12-31T08:09:47.963Z,76.76
2022-12-31T08:11:59.964Z,76.51
2022-12-31T08:14:20.165Z,77.52
2022-12-31T08:16:22.518Z,77.00
2022-12-31T08:18:37.963Z,76.65
2022-12-31T08:21:11.426Z,76.87
2022-12-31T08:23:32.541Z,76.55
2022-12-31T08:25:53.336Z,76.71
2022-12-31T08:28:25.413Z,76.50
2022-12-31T08:31:01.260Z,76.07
2022-12-31T08:33:44.255Z,76.48
2022-12-31T08:36:22.220Z,76.34
2022-12-31T08:38:42.059Z,75.99
2022-12-31T08:41:02.743Z,76.11
2022-12-31T08:43:27.886Z,76.23
2022-12-31T08:46:01.708Z,75.45
2022-12-31T08:48:11.576Z,75.78
2022-12-31T08:50:16.176Z,75.94
2022-12-31T08:52:25.186Z,75.75
2022-12-31T08:54:27.898Z,75.61
2022-12-31T08:56:51.412Z,75.31
2022-12-31T08:59:30.461Z,75.38
2022-12-31T09:01:58.857Z,74.82
2022-12-31T09:04:30.617Z,74.56
2022-12-31T09:06:37.885Z,74.38
2022-12-31T09:08:39.776Z,73.53
2022-12-31T09:10:57.036Z,74.27
2022-12-31T09:13:19.695Z,74.10
2022-12-31T09:15:32.913Z,73.89
2022-12-31T09:17:49.278Z,74.04
2022-12-31T09:19:52.541Z,74.42
2022-12-31T09:21:56.725Z,73.95
2022-12-31T09:24:09.289Z,74.11
2022-12-31T09:26:48.562Z,74.12
2022-12-31T09:28:57.059Z,74.29
2022-12-31T09:31:40.685Z,73.91
2022-12-31T09:33:52.578Z,74.33
2022-12-31T09:35:57.980Z,74.43
2022-12-31T09:38:15.029Z,73.94
2022-12-31T09:40:48.062Z,74.26
2022-12-31T09:43:22.238Z,74.03
2022-12-31T09:45:32.952Z,73.89
2022-12-31T09:47:58.570Z,74.17
2022-12-31T09:50:37.874Z,73.87
2022-12-31T09:53:19.240Z,74.12
2022-12-31T09:55:34.208Z,74.00
2022-12-31T09:58:02.654Z,72.94
2022-12-31T10:00:15.752Z,71.96
2022-12-31T10:03:01.084Z,70.67
2022-12-31T10:05:21.922Z,70.33
2022-12-31T10:07:48.784Z,70.05
2022-12-31T10:10:15.102Z,70.55
2022-12-31T10:12:50.545Z,70.31
2022-12-31T10:15:14.059Z,70.27
2022-12-31T10:17:46.407Z,69.41
2022-12-31T10:20:18.278Z,69.55
2022-12-31T10:22:38.957Z,69.95
2022-12-31T10:25:00.808Z,70.46
2022-12-31T10:27:28.851Z,70.77
2022-12-31T10:29:55.188Z,70.35
2022-12-31T10:32:23.725Z,70.64
2022-12-31T10:34:53.884Z,70.71
2022-12-31T10:37:17.541Z,70.91
2022-12-31T10:39:44.627Z,70.97
2022-12-31T10:42:01.091Z,71.14
2022-12-31T10:44:26.106Z,71.07
2022-12-31T10:47:12.107Z,71.08
2022-12-31T10:49:48.650Z,70.62
2022-12-31T10:52:45.602Z,69.71
2022-12-31T10:55:18.820Z,69.79
2022-12-31T10:58:04.274Z,69.28
2022-12-31T11:00:12.510Z,68.76
2022-12-31T11:02:30.660Z,68.56
2022-12-31T11:04:52.389Z,68.48
2022-12-31T11:07:29.655Z,68.10
2022-12-31T11:10:05.325Z,68.79
2022-12-31T11:12:34.965Z,69.67
2022-12-31T11:15:03.834Z,69.98
2022-12-31T11:17:28.652Z,70.15
2022-12-31T11:19:55.438Z,69.67
2022-12-31T11:22:44.995Z,69.99
2022-12-31T11:24:46.868Z,70.10
2022-12-31T11:27:06.749Z,70.15
2022-12-31T11:29:15.621Z,70.11
2022-12-31T11:31:21.264Z,70.44
2022-12-31T11:33:40.630Z,70.33
2022-12-31T11:35:50.800Z,70.22
2022-12-31T11:38:09.063Z,69.95
2022-12-31T11:40:54.405Z,69.36
2022-12-31T11:43:23.867Z,69.73
2022-12-31T11:45:37.795Z,69.49
2022-12-31T11:50:32.714Z,69.52
2022-12-31T11:52:52.170Z,69.96
2022-12-31T11:55:03.328Z,70.40
2022-12-31T11:57:23.524Z,70.77
2022-12-31T11:59:25.428Z,70.43
2022-12-31T12:01:36.308Z,70.34
2022-12-31T12:03:43.440Z,70.70
2022-12-31T12:05:45.590Z,70.97
2022-12-31T12:07:49.410Z,70.91
2022-12-31T12:09:54.685Z,70.95
2022-12-31T12:12:01.988Z,71.09
2022-12-31T12:14:21.892Z,71.50
2022-12-31T12:16:26.323Z,71.66
2022-12-31T12:18:42.707Z,71.55
2022-12-31T12:20:49.353Z,72.24
2022-12-31T12:22:54.589Z,74.40
2022-12-31T12:25:16.207Z,76.59
2022-12-31T12:27:27.204Z,77.22
2022-12-31T12:29:36.779Z,76.69
2022-12-31T12:31:39.487Z,76.98
2022-12-31T12:33:46.880Z,76.57
2022-12-31T12:35:48.992Z,76.33
2022-12-31T12:38:03.507Z,76.49
2022-12-31T12:40:20.214Z,75.69
2022-12-31T12:42:23.237Z,76.24
2022-12-31T12:44:25.150Z,75.64
2022-12-31T12:46:49.417Z,75.76
2022-12-31T12:48:56.471Z,76.02
2022-12-31T12:51:00.286Z,76.25
2022-12-31T12:53:20.546Z,75.91
2022-12-31T12:55:54.626Z,76.61
2022-12-31T12:59:07.364Z,76.68
2022-12-31T13:01:31.410Z,77.13
2022-12-31T13:04:32.439Z,77.40
2022-12-31T13:06:28.167Z,77.43
2022-12-31T13:08:49.737Z,76.95
2022-12-31T13:11:29.923Z,77.29
2022-12-31T13:13:46.089Z,76.99
2022-12-31T13:16:25.879Z,76.68
2022-12-31T13:19:20.092Z,76.77
2022-12-31T13:21:37.277Z,76.60
2022-12-31T13:23:53.934Z,76.20
2022-12-31T13:26:15.422Z,76.31
2022-12-31T13:28:19.401Z,76.00
2022-12-31T13:30:25.405Z,75.91
2022-12-31T13:33:00.627Z,75.50
2022-12-31T13:35:18.826Z,75.81
2022-12-31T13:37:34.076Z,75.36
2022-12-31T13:39:42.158Z,74.77
2022-12-31T13:42:07.471Z,75.00
2022-12-31T13:44:19.627Z,74.49
2022-12-31T13:46:32.782Z,74.43
2022-12-31T13:48:40.692Z,74.09
2022-12-31T13:51:21.295Z,74.00
2022-12-31T13:53:30.767Z,73.89
2022-12-31T13:55:38.477Z,73.68
2022-12-31T13:58:06.750Z,73.60
2022-12-31T14:00:20.160Z,73.16
2022-12-31T14:02:55.922Z,72.92
2022-12-31T14:05:05.200Z,73.25
2022-12-31T14:07:18.638Z,73.13
2022-12-31T14:09:27.206Z,73.30
2022-12-31T14:12:07.806Z,73.51
2022-12-31T14:14:18.882Z,72.85
2022-12-31T14:16:56.169Z,72.64
2022-12-31T14:19:31.032Z,73.25
2022-12-31T14:21:45.227Z,72.31
2022-12-31T14:23:59.972Z,72.28
2022-12-31T14:26:19.028Z,72.54
2022-12-31T14:28:58.128Z,72.20
2022-12-31T14:31:28.265Z,72.74
2022-12-31T14:33:55.453Z,72.14
2022-12-31T14:36:15.401Z,72.06
2022-12-31T14:38:47.893Z,72.09
2022-12-31T14:41:17.242Z,72.62
2022-12-31T14:43:22.058Z,72.32
2022-12-31T14:45:42.288Z,72.28
2022-12-31T14:47:57.449Z,72.19
2022-12-31T14:50:12.439Z,72.21
2022-12-31T14:52:28.918Z,72.23
2022-12-31T14:54:38.345Z,72.34
2022-12-31T14:56:44.526Z,72.29
2022-12-31T14:58:56.274Z,72.27
2022-12-31T15:01:09.085Z,72.43
2022-12-31T15:03:14.009Z,72.12
2022-12-31T15:05:19.943Z,72.41
2022-12-31T15:07:37.340Z,72.29
2022-12-31T15:09:51.708Z,72.19
2022-12-31T15:12:15.320Z,72.33
2022-12-31T15:14:20.290Z,72.57
2022-12-31T15:16:57.776Z,72.60
2022-12-31T15:19:05.546Z,72.42
2022-12-31T15:21:26.148Z,72.46
2022-12-31T15:23:39.162Z,72.27
2022-12-31T15:25:48.640Z,72.84
2022-12-31T15:27:50.929Z,72.88
2022-12-31T15:29:53.989Z,72.61
2022-12-31T15:31:59.216Z,72.60
2022-12-31T15:34:05.761Z,72.68
2022-12-31T15:36:20.054Z,72.28
2022-12-31T15:38:33.281Z,72.50
2022-12-31T15:40:47.682Z,72.18
2022-12-31T15:43:03.053Z,72.07
2022-12-31T15:45:07.859Z,72.21
2022-12-31T15:47:09.823Z,72.21
2022-12-31T15:49:18.413Z,72.18
2022-12-31T15:51:26.326Z,72.41
2022-12-31T15:53:44.296Z,72.45
2022-12-31T15:55:53.892Z,72.52
2022-12-31T15:58:03.527Z,72.09
2022-12-31T16:00:20.063Z,71.89
2022-12-31T16:02:25.993Z,72.05
2022-12-31T16:04:30.087Z,72.35
2022-12-31T16:06:37.585Z,71.71
2022-12-31T16:08:44.087Z,71.51
2022-12-31T16:10:46.679Z,72.01
2022-12-31T16:12:49.104Z,71.68
2022-12-31T16:14:55.266Z,71.88
2022-12-31T16:17:00.682Z,71.66
2022-12-31T16:19:02.742Z,71.44
2022-12-31T16:21:04.797Z,71.93
2022-12-31T16:23:22.864Z,71.74
2022-12-31T16:25:31.090Z,71.37
2022-12-31T16:27:35.817Z,71.59
2022-12-31T16:29:42.076Z,71.60
2022-12-31T16:32:05.061Z,71.54
2022-12-31T16:34:13.725Z,71.51
2022-12-31T16:36:23.702Z,71.92
2022-12-31T16:38:37.143Z,71.55
2022-12-31T16:40:40.701Z,71.52
2022-12-31T16:42:47.433Z,71.79
2022-12-31T16:44:51.278Z,71.95
2022-12-31T16:46:57.550Z,71.90
2022-12-31T16:49:06.525Z,72.19
2022-12-31T16:51:17.263Z,72.60
2022-12-31T16:53:24.092Z,72.16
2022-12-31T16:55:29.057Z,71.87
2022-12-31T16:57:33.120Z,72.26
2022-12-31T16:59:47.421Z,72.17
2022-12-31T17:01:56.279Z,72.09
2022-12-31T17:04:01.277Z,71.83
2022-12-31T17:06:06.289Z,72.15
2022-12-31T17:08:38.726Z,72.24
2022-12-31T17:10:42.681Z,72.06
2022-12-31T17:13:27.419Z,71.64
2022-12-31T17:15:29.333Z,72.05
2022-12-31T17:17:37.634Z,72.08
2022-12-31T17:19:45.531Z,71.67
2022-12-31T17:21:48.832Z,71.95
2022-12-31T17:24:04.853Z,72.03
2022-12-31T17:26:15.558Z,71.67
2022-12-31T17:28:33.298Z,71.87
2022-12-31T17:30:40.555Z,72.04
2022-12-31T17:32:43.585Z,72.08
2022-12-31T17:34:50.221Z,72.41
2022-12-31T17:37:10.572Z,72.19
2022-12-31T17:39:19.199Z,71.82
2022-12-31T17:41:28.216Z,71.87
2022-12-31T17:43:35.370Z,72.27
2022-12-31T17:45:39.053Z,72.03
2022-12-31T17:47:48.311Z,72.32
2022-12-31T17:49:50.409Z,72.08
2022-12-31T17:51:53.524Z,72.27
2022-12-31T17:53:55.505Z,72.26
2022-12-31T17:56:03.079Z,72.06
2022-12-31T17:58:06.927Z,72.16
2022-12-31T18:00:17.752Z,72.13
2022-12-31T18:02:20.120Z,71.83
2022-12-31T18:04:22.195Z,71.94
2022-12-31T18:06:27.536Z,71.74
2022-12-31T18:08:31.633Z,71.81
2022-12-31T18:10:37.043Z,71.54
2022-12-31T18:12:39.565Z,71.46
2022-12-31T18:14:44.795Z,71.27
2022-12-31T18:16:48.419Z,71.16
2022-12-31T18:18:50.450Z,71.47
2022-12-31T18:20:59.635Z,70.96
2022-12-31T18:23:01.594Z,71.08
2022-12-31T18:25:04.545Z,71.06
2022-12-31T18:27:15.600Z,70.87
2022-12-31T18:29:20.132Z,70.49
2022-12-31T18:31:28.932Z,70.22
2022-12-31T18:33:32.083Z,70.25
2022-12-31T18:36:07.272Z,70.45
2022-12-31T18:37:58.416Z,71.01
2022-12-31T18:40:00.354Z,70.85
2022-12-31T18:42:03.331Z,70.33
2022-12-31T18:44:06.741Z,70.71
2022-12-31T18:46:12.757Z,70.24
2022-12-31T18:48:16.541Z,70.26
2022-12-31T18:50:18.596Z,70.35
2022-12-31T18:52:23.249Z,70.63
2022-12-31T18:54:25.164Z,70.46
2022-12-31T18:56:27.564Z,70.31
2022-12-31T18:58:30.500Z,71.17
2022-12-31T19:00:32.786Z,70.60
2022-12-31T19:02:36.972Z,70.72
2022-12-31T19:04:40.007Z,70.47
2022-12-31T19:06:45.970Z,71.17
2022-12-31T19:08:48.177Z,70.68
2022-12-31T19:10:52.378Z,70.89
2022-12-31T19:12:55.512Z,70.67
2022-12-31T19:14:57.497Z,71.38
2022-12-31T19:19:08.341Z,71.35
2022-12-31T19:21:17.446Z,71.58
2022-12-31T19:23:21.792Z,70.98
2022-12-31T19:25:33.955Z,71.40
2022-12-31T19:27:36.089Z,71.28
2022-12-31T19:29:42.205Z,71.18
2022-12-31T19:31:44.169Z,71.90
2022-12-31T19:33:51.365Z,71.97
2022-12-31T19:35:53.405Z,71.75
2022-12-31T19:37:56.495Z,71.80
2022-12-31T19:40:02.585Z,72.06
2022-12-31T19:42:04.923Z,72.12
2022-12-31T19:44:19.881Z,72.29
2022-12-31T19:46:22.295Z,72.78
2022-12-31T19:48:32.249Z,72.34
2022-12-31T19:50:47.050Z,72.50
2022-12-31T19:52:53.532Z,72.39
2022-12-31T19:54:57.569Z,72.97
2022-12-31T19:56:59.588Z,73.23
2022-12-31T19:59:12.109Z,73.42
2022-12-31T20:01:22.905Z,72.49
2022-12-31T20:05:44.824Z,73.24
2022-12-31T20:07:55.589Z,72.89
2022-12-31T20:09:57.597Z,72.58
2022-12-31T20:12:07.553Z,72.62
2022-12-31T20:14:10.785Z,72.70
2022-12-31T20:16:21.040Z,73.05
2022-12-31T20:18:38.709Z,72.57
2022-12-31T20:20:49.244Z,73.20
2022-12-31T20:23:11.675Z,72.62
2022-12-31T20:25:13.626Z,72.90
2022-12-31T20:27:18.768Z,73.19
2022-12-31T20:29:20.771Z,72.95
2022-12-31T20:31:34.619Z,73.32
2022-12-31T20:33:36.674Z,72.72
2022-12-31T20:35:42.370Z,73.02
2022-12-31T20:37:50.314Z,72.68
2022-12-31T20:39:57.977Z,72.42
2022-12-31T20:42:06.168Z,72.25
2022-12-31T20:44:14.387Z,73.22
2022-12-31T20:46:19.872Z,73.21
2022-12-31T20:48:22.943Z,73.10
2022-12-31T20:50:24.896Z,73.10
2022-12-31T20:52:29.166Z,73.08
2022-12-31T20:54:32.291Z,73.20
2022-12-31T20:56:37.847Z,73.29
2022-12-31T20:58:42.905Z,73.30
2022-12-31T21:00:53.247Z,73.77
2022-12-31T21:03:14.351Z,73.59
2022-12-31T21:05:24.322Z,73.84
2022-12-31T21:07:32.363Z,73.53
2022-12-31T21:09:37.410Z,73.27
2022-12-31T21:11:59.323Z,73.44
2022-12-31T21:14:03.365Z,74.27
2022-12-31T21:16:06.653Z,73.84
2022-12-31T21:18:09.733Z,73.77
2022-12-31T21:20:12.527Z,73.54
2022-12-31T21:22:15.619Z,73.14
2022-12-31T21:24:23.571Z,73.45
2022-12-31T21:26:27.975Z,72.98
2022-12-31T21:28:30.940Z,73.83
2022-12-31T21:30:32.946Z,73.96
2022-12-31T21:32:43.807Z,73.43
2022-12-31T21:35:00.235Z,73.48
2022-12-31T21:37:11.694Z,73.93
2022-12-31T21:39:20.539Z,73.13
2022-12-31T21:41:46.953Z,73.36
2022-12-31T21:43:56.551Z,73.46
2022-12-31T21:46:07.717Z,73.53
2022-12-31T21:48:23.479Z,73.68
2022-12-31T21:50:27.542Z,73.97
2022-12-31T21:52:36.500Z,74.42
2022-12-31T21:55:01.161Z,74.34
2022-12-31T21:57:11.229Z,74.40
2022-12-31T21:59:33.919Z,73.93
2022-12-31T22:01:57.406Z,74.12
2022-12-31T22:04:01.475Z,73.65
2022-12-31T22:06:16.352Z,73.95
2022-12-31T22:08:36.617Z,74.27
2022-12-31T22:10:50.339Z,74.06
2022-12-31T22:12:56.741Z,74.74
2022-12-31T22:15:15.671Z,74.22
2022-12-31T22:17:18.535Z,73.81
2022-12-31T22:19:24.943Z,73.64
2022-12-31T22:21:27.839Z,73.36
2022-12-31T22:23:30.611Z,73.61
2022-12-31T22:25:42.862Z,73.81
2022-12-31T22:28:11.458Z,72.90
2022-12-31T22:30:10.208Z,73.13
2022-12-31T22:32:12.413Z,73.06
2022-12-31T22:34:14.407Z,73.48
2022-12-31T22:36:20.120Z,72.68
2022-12-31T22:38:22.546Z,72.60
2022-12-31T22:40:25.631Z,72.85
2022-12-31T22:42:28.532Z,72.62
2022-12-31T22:44:30.636Z,72.99
2022-12-31T22:46:33.397Z,72.90
2022-12-31T22:48:38.039Z,72.94
2022-12-31T22:50:40.031Z,73.22
2022-12-31T22:52:42.127Z,73.11
2022-12-31T22:54:46.151Z,72.85
2022-12-31T22:56:48.227Z,72.61
2022-12-31T22:58:51.204Z,72.36
2022-12-31T23:00:53.846Z,72.49
2022-12-31T23:02:56.789Z,72.93
2022-12-31T23:05:15.481Z,73.21
2022-12-31T23:07:18.477Z,72.58
2022-12-31T23:09:39.904Z,73.13
2022-12-31T23:11:43.382Z,73.39
2022-12-31T23:14:04.012Z,73.11
2022-12-31T23:16:25.583Z,72.80
2022-12-31T23:18:46.050Z,72.99
2022-12-31T23:21:06.239Z,72.84
2022-12-31T23:23:16.374Z,72.82
2022-12-31T23:25:18.495Z,72.71
2022-12-31T23:27:20.550Z,72.62
2022-12-31T23:29:22.590Z,72.20
2022-12-31T23:31:28.882Z,72.28
2022-12-31T23:33:30.866Z,73.21
2022-12-31T23:35:33.065Z,72.19
2022-12-31T23:37:36.056Z,73.16
2022-12-31T23:39:40.168Z,73.42
2022-12-31T23:41:43.232Z,72.86
2022-12-31T23:43:45.679Z,72.03
2022-12-31T23:45:52.042Z,71.92
2022-12-31T23:47:53.983Z,72.40
2022-12-31T23:49:55.993Z,72.41
2022-12-31T23:51:58.991Z,72.69
2022-12-31T23:54:01.191Z,72.31
2022-12-31T23:56:16.197Z,72.50
2022-12-31T23:58:22.147Z,72.78
